Time;durP1;ratioP1;P1;durP2;ratioP2;P2;SDS_P1;SDS_P2;PMS_P1;PMS_P2;Temp;Humidity;BMP_temperature;BMP_pressure;BME280_temperature;BME280_humidity;BME280_pressure;Samples;Min_cycle;Max_cycle;Signal;HPM_P1;HPM_P2
2023/10/10 00:00:48;;;;;;;0.10;0.10;;;;;;;;;;4940941;28;20039;-88
2023/10/10 00:03:14;;;;;;;0.10;0.10;;;;;;;;;;4939866;28;20097;-87
2023/10/10 00:05:40;;;;;;;0.10;0.10;;;;;;;;;;4955554;28;20042;-88
2023/10/10 00:08:10;;;;;;;0.10;0.10;;;;;;;;;;4956465;28;20047;-87
2023/10/10 00:10:36;;;;;;;0.10;0.10;;;;;;;;;;4959909;28;20039;-87
2023/10/10 00:13:07;;;;;;;0.10;0.10;;;;;;;;;;4959350;28;20097;-88
2023/10/10 00:15:34;;;;;;;0.10;0.10;;;;;;;;;;4943252;28;20046;-88
2023/10/10 00:18:07;;;;;;;0.10;0.10;;;;;;;;;;4943502;28;20043;-87
2023/10/10 00:20:41;;;;;;;;;;;;;;;;;;4944577;28;20039;-87
2023/10/10 00:23:10;;;;;;;0.10;0.10;;;;;;;;;;4959116;28;19974;-88
2023/10/10 00:25:37;;;;;;;0.10;0.10;;;;;;;;;;4943639;28;20041;-88
2023/10/10 00:28:17;;;;;;;0.10;0.10;;;;;;;;;;4943151;28;20444;-88
2023/10/10 00:30:44;;;;;;;0.10;0.10;;;;;;;;;;4959367;28;20042;-88
2023/10/10 00:33:11;;;;;;;0.68;0.30;;;;;;;;;;4943194;28;20074;-87
2023/10/10 00:35:38;;;;;;;0.10;0.10;;;;;;;;;;4943037;28;20110;-87
2023/10/10 00:38:05;;;;;;;0.10;0.10;;;;;;;;;;4942864;28;20046;-87
2023/10/10 00:40:33;;;;;;;0.10;0.10;;;;;;;;;;4943110;28;20491;-87
2023/10/10 00:42:59;;;;;;;0.10;0.10;;;;;;;;;;4943055;28;20168;-87
2023/10/10 00:45:33;;;;;;;0.20;0.20;;;;;;;;;;4942759;28;20051;-87
2023/10/10 00:48:00;;;;;;;0.10;0.10;;;;;;;;;;4928288;28;20046;-87
2023/10/10 00:50:27;;;;;;;0.10;0.10;;;;;;;;;;4943219;28;20058;-87
2023/10/10 00:52:56;;;;;;;0.10;0.10;;;;;;;;;;4975995;28;20050;-87
2023/10/10 00:55:24;;;;;;;0.10;0.10;;;;;;;;;;4943466;28;20073;-87
2023/10/10 00:57:58;;;;;;;0.10;0.10;;;;;;;;;;4943022;28;20057;-88
2023/10/10 01:00:30;;;;;;;0.10;0.10;;;;;;;;;;4958737;28;20050;-89
2023/10/10 01:02:57;;;;;;;0.10;0.10;;;;;;;;;;4943407;28;20097;-89
2023/10/10 01:05:23;;;;;;;0.10;0.10;;;;;;;;;;4942789;28;20546;-88
2023/10/10 01:07:51;;;;;;;0.10;0.10;;;;;;;;;;4958341;28;20531;-88
2023/10/10 01:10:17;;;;;;;0.10;0.10;;;;;;;;;;4958917;28;20031;-88
2023/10/10 01:12:46;;;;;;;0.10;0.10;;;;;;;;;;4958173;28;20480;-87
2023/10/10 01:15:24;;;;;;;0.10;0.10;;;;;;;;;;4942568;28;20097;-88
2023/10/10 01:17:50;;;;;;;0.10;0.10;;;;;;;;;;4942553;28;20472;-87
2023/10/10 01:20:33;;;;;;;0.20;0.20;;;;;;;;;;4956960;28;20054;-87
2023/10/10 01:22:59;;;;;;;0.10;0.10;;;;;;;;;;4942329;28;20045;-87
2023/10/10 01:28:13;;;;;;;0.10;0.10;;;;;;;;;;4958030;28;20047;-87
2023/10/10 01:33:37;;;;;;;0.10;0.10;;;;;;;;;;4944488;28;20038;-87
2023/10/10 01:36:17;;;;;;;0.10;0.10;;;;;;;;;;4960231;28;20492;-88
2023/10/10 01:38:55;;;;;;;0.10;0.10;;;;;;;;;;4943443;28;20065;-88
2023/10/10 01:41:23;;;;;;;0.10;0.10;;;;;;;;;;4975101;28;20396;-88
2023/10/10 01:43:53;;;;;;;0.10;0.10;;;;;;;;;;4941999;28;20057;-88
2023/10/10 01:46:27;;;;;;;0.10;0.10;;;;;;;;;;4942291;28;20518;-88
2023/10/10 01:48:53;;;;;;;0.10;0.10;;;;;;;;;;4941627;28;20078;-88
2023/10/10 01:51:19;;;;;;;0.10;0.10;;;;;;;;;;4957811;28;20046;-88
2023/10/10 01:53:48;;;;;;;0.10;0.10;;;;;;;;;;4957461;28;20097;-87
2023/10/10 01:56:14;;;;;;;0.10;0.10;;;;;;;;;;4942143;28;20392;-87
2023/10/10 01:58:41;;;;;;;0.20;0.20;;;;;;;;;;4941371;28;20051;-88
2023/10/10 02:01:14;;;;;;;0.10;0.10;;;;;;;;;;4941794;28;20074;-88
2023/10/10 02:03:42;;;;;;;0.20;0.20;;;;;;;;;;4957390;28;20047;-87
2023/10/10 02:06:13;;;;;;;0.10;0.10;;;;;;;;;;4941609;28;20130;-87
2023/10/10 02:08:40;;;;;;;0.10;0.10;;;;;;;;;;4942308;28;20050;-87
2023/10/10 02:11:08;;;;;;;0.10;0.10;;;;;;;;;;4957475;28;20360;-87
2023/10/10 02:13:39;;;;;;;0.10;0.10;;;;;;;;;;4941139;28;20078;-87
2023/10/10 02:16:06;;;;;;;0.10;0.10;;;;;;;;;;4942106;28;20285;-87
2023/10/10 02:18:54;;;;;;;0.10;0.10;;;;;;;;;;4941527;28;20064;-87
2023/10/10 02:21:31;;;;;;;0.10;0.10;;;;;;;;;;4956520;28;20047;-88
2023/10/10 02:24:19;;;;;;;0.10;0.10;;;;;;;;;;4942561;28;20042;-88
2023/10/10 02:26:51;;;;;;;0.10;0.10;;;;;;;;;;4956917;28;20057;-88
2023/10/10 02:29:19;;;;;;;0.10;0.10;;;;;;;;;;4942115;28;20043;-88
2023/10/10 02:32:05;;;;;;;0.20;0.20;;;;;;;;;;4940936;28;20050;-88
2023/10/10 02:34:34;;;;;;;0.10;0.10;;;;;;;;;;4943561;28;20038;-88
2023/10/10 02:38:05;;;;;;;0.20;0.20;;;;;;;;;;4957412;28;20054;-88
2023/10/10 02:40:14;;;;;;;0.10;0.10;;;;;;;;;;4940297;28;20381;-88
2023/10/10 02:42:49;;;;;;;0.10;0.10;;;;;;;;;;4943043;28;20054;-88
2023/10/10 02:45:15;;;;;;;0.20;0.20;;;;;;;;;;4940399;28;20054;-88
2023/10/10 02:47:46;;;;;;;0.17;0.17;;;;;;;;;;4956472;28;20511;-88
2023/10/10 02:50:38;;;;;;;0.10;0.10;;;;;;;;;;4940553;28;20045;-88
2023/10/10 02:53:03;;;;;;;0.10;0.10;;;;;;;;;;4959734;28;20389;-88
2023/10/10 02:55:35;;;;;;;0.10;0.10;;;;;;;;;;4941081;28;20404;-88
2023/10/10 02:58:01;;;;;;;0.10;0.10;;;;;;;;;;4956702;28;20053;-88
2023/10/10 03:02:53;;;;;;;0.10;0.10;;;;;;;;;;4940521;28;20191;-88
2023/10/10 03:05:39;;;;;;;0.10;0.10;;;;;;;;;;4956265;28;20078;-87
2023/10/10 03:08:16;;;;;;;0.10;0.10;;;;;;;;;;4943134;28;20035;-87
2023/10/10 03:10:45;;;;;;;0.10;0.10;;;;;;;;;;4941462;28;20414;-87
2023/10/10 03:15:57;;;;;;;0.10;0.10;;;;;;;;;;4973237;28;20491;-87
2023/10/10 03:18:29;;;;;;;0.10;0.10;;;;;;;;;;4940492;28;20381;-88
2023/10/10 03:23:56;;;;;;;0.17;0.17;;;;;;;;;;4942213;28;20066;-88
2023/10/10 03:29:11;;;;;;;0.10;0.10;;;;;;;;;;4959057;28;20043;-87
2023/10/10 03:31:47;;;;;;;0.10;0.10;;;;;;;;;;4940567;28;20055;-87
2023/10/10 03:34:30;;;;;;;0.10;0.10;;;;;;;;;;4941535;28;20058;-87
2023/10/10 03:39:53;;;;;;;0.10;0.10;;;;;;;;;;4955894;28;20385;-88
2023/10/10 05:24:24;;;;;;;0.10;0.10;;;;;;;;;;4975206;28;20507;-87
2023/10/10 05:26:53;;;;;;;0.10;0.10;;;;;;;;;;4957826;28;20535;-88
2023/10/10 05:29:19;;;;;;;0.10;0.10;;;;;;;;;;4942171;28;20443;-87
2023/10/10 05:31:51;;;;;;;0.10;0.10;;;;;;;;;;4957842;28;20047;-88
2023/10/10 05:34:18;;;;;;;0.10;0.10;;;;;;;;;;4942254;28;20503;-88
2023/10/10 05:36:48;;;;;;;0.10;0.10;;;;;;;;;;4942230;28;20126;-88
2023/10/10 05:39:21;;;;;;;0.10;0.10;;;;;;;;;;4957790;28;20500;-88
2023/10/10 05:41:54;;;;;;;0.10;0.10;;;;;;;;;;4942686;28;20079;-88
2023/10/10 05:44:21;;;;;;;0.10;0.10;;;;;;;;;;4957486;28;20122;-88
2023/10/10 05:46:47;;;;;;;0.10;0.10;;;;;;;;;;4926039;28;20078;-88
2023/10/10 05:49:13;;;;;;;0.10;0.10;;;;;;;;;;4941720;28;20039;-87
2023/10/10 05:51:40;;;;;;;0.20;0.20;;;;;;;;;;4941660;28;20039;-87
2023/10/10 05:54:12;;;;;;;0.10;0.10;;;;;;;;;;4925512;28;20097;-86
2023/10/10 05:56:38;;;;;;;0.10;0.10;;;;;;;;;;4942458;28;20039;-87
2023/10/10 05:59:06;;;;;;;0.70;0.70;;;;;;;;;;4941459;28;20046;-87
2023/10/10 06:01:35;;;;;;;0.10;0.10;;;;;;;;;;4957133;28;20051;-87
2023/10/10 06:04:01;;;;;;;0.38;0.20;;;;;;;;;;4974596;28;20100;-88
2023/10/10 06:06:28;;;;;;;0.10;0.10;;;;;;;;;;4940892;28;20043;-88
2023/10/10 06:09:00;;;;;;;0.38;0.38;;;;;;;;;;4941014;28;20039;-87
2023/10/10 06:11:27;;;;;;;0.10;0.10;;;;;;;;;;4941291;28;20060;-88
2023/10/10 06:13:53;;;;;;;0.10;0.10;;;;;;;;;;4941073;28;20046;-88
2023/10/10 06:16:20;;;;;;;0.10;0.10;;;;;;;;;;4925113;28;20057;-88
2023/10/10 06:18:49;;;;;;;0.20;0.20;;;;;;;;;;4941344;28;20046;-86
2023/10/10 06:21:16;;;;;;;0.10;0.10;;;;;;;;;;4956988;28;20050;-86
2023/10/10 06:23:42;;;;;;;0.10;0.10;;;;;;;;;;4940919;28;20043;-86
2023/10/10 06:26:08;;;;;;;0.10;0.10;;;;;;;;;;4940917;28;20401;-87
2023/10/10 06:28:45;;;;;;;0.10;0.10;;;;;;;;;;4957175;28;20038;-87
2023/10/10 06:31:13;;;;;;;0.20;0.20;;;;;;;;;;4942524;28;20126;-87
2023/10/10 06:33:40;;;;;;;0.60;0.60;;;;;;;;;;4956957;28;20206;-88
2023/10/10 06:38:59;;;;;;;0.10;0.10;;;;;;;;;;4942585;28;20047;-90
2023/10/10 06:41:27;;;;;;;0.20;0.20;;;;;;;;;;4926163;28;20130;-86
2023/10/10 06:43:53;;;;;;;0.10;0.10;;;;;;;;;;4956944;28;20168;-85
2023/10/10 06:46:19;;;;;;;0.10;0.10;;;;;;;;;;4973790;28;20051;-87
2023/10/10 06:48:47;;;;;;;0.10;0.10;;;;;;;;;;4957031;28;20172;-86
2023/10/10 06:51:21;;;;;;;0.10;0.10;;;;;;;;;;4957053;28;20360;-89
2023/10/10 06:53:54;;;;;;;0.10;0.10;;;;;;;;;;4941944;28;20164;-87
2023/10/10 06:56:43;;;;;;;;;;;;;;;;;;4941881;28;20053;-86
2023/10/10 06:59:09;;;;;;;0.10;0.10;;;;;;;;;;4973595;28;19973;-86
2023/10/10 07:01:35;;;;;;;0.10;0.10;;;;;;;;;;4941025;28;20452;-91
2023/10/10 07:04:04;;;;;;;0.10;0.10;;;;;;;;;;4924487;28;20098;-88
2023/10/10 07:06:30;;;;;;;0.10;0.10;;;;;;;;;;4940495;28;20393;-92
2023/10/10 07:09:14;;;;;;;0.10;0.10;;;;;;;;;;4940835;28;20034;-90
2023/10/10 07:11:43;;;;;;;0.10;0.10;;;;;;;;;;4939918;29;20227;-89
2023/10/10 07:14:10;;;;;;;0.10;0.10;;;;;;;;;;4921073;29;20459;-87
2023/10/10 07:16:42;;;;;;;0.10;0.10;;;;;;;;;;4940266;28;20073;-86
2023/10/10 07:19:19;;;;;;;0.10;0.10;;;;;;;;;;4957103;28;20042;-86
2023/10/10 07:21:47;;;;;;;0.10;0.10;;;;;;;;;;4925458;28;20043;-86
2023/10/10 07:24:14;;;;;;;0.10;0.10;;;;;;;;;;4924264;28;20101;-86
2023/10/10 07:26:43;;;;;;;0.10;0.10;;;;;;;;;;4955530;28;20122;-86
2023/10/10 07:29:28;;;;;;;0.20;0.20;;;;;;;;;;4956112;28;20047;-86
2023/10/10 07:34:42;;;;;;;0.10;0.10;;;;;;;;;;4955455;28;20137;-87
2023/10/10 07:37:08;;;;;;;0.10;0.10;;;;;;;;;;4955741;28;20126;-87
2023/10/10 07:39:55;;;;;;;0.20;0.20;;;;;;;;;;4955902;28;20042;-86
2023/10/10 07:42:27;;;;;;;0.10;0.10;;;;;;;;;;4926633;28;20047;-87
2023/10/10 07:44:54;;;;;;;0.10;0.10;;;;;;;;;;4973263;28;20249;-89
2023/10/10 07:47:25;;;;;;;0.10;0.10;;;;;;;;;;4924492;28;20500;-87
2023/10/10 07:49:52;;;;;;;0.20;0.20;;;;;;;;;;4973188;28;20043;-87
2023/10/10 07:52:20;;;;;;;0.20;0.20;;;;;;;;;;4956238;28;20492;-87
2023/10/10 07:54:46;;;;;;;0.10;0.10;;;;;;;;;;4939624;28;20047;-87
2023/10/10 07:57:18;;;;;;;0.10;0.10;;;;;;;;;;4940285;28;20046;-88
2023/10/10 07:59:49;;;;;;;0.20;0.20;;;;;;;;;;4940461;28;20125;-87
2023/10/10 08:02:31;;;;;;;0.33;0.20;;;;;;;;;;4955543;28;20043;-88
2023/10/10 08:05:00;;;;;;;0.30;0.30;;;;;;;;;;4955770;28;20038;-87
2023/10/10 08:07:26;;;;;;;0.10;0.10;;;;;;;;;;4923825;28;20042;-88
2023/10/10 08:10:13;;;;;;;0.35;0.30;;;;;;;;;;4937270;28;20042;-88
2023/10/10 08:12:39;;;;;;;0.10;0.10;;;;;;;;;;4936530;29;20051;-88
2023/10/10 08:15:20;;;;;;;0.20;0.20;;;;;;;;;;4910081;29;20047;-87
2023/10/10 08:17:51;;;;;;;1.90;0.32;;;;;;;;;;4926623;28;20053;-87
2023/10/10 08:23:02;;;;;;;0.20;0.20;;;;;;;;;;4921533;28;20063;-88
2023/10/10 08:25:29;;;;;;;0.10;0.10;;;;;;;;;;4907277;28;20047;-88
2023/10/10 08:27:55;;;;;;;0.17;0.17;;;;;;;;;;4955731;28;20527;-87
2023/10/10 08:30:25;;;;;;;0.10;0.10;;;;;;;;;;4958582;28;20114;-87
2023/10/10 08:32:58;;;;;;;0.20;0.20;;;;;;;;;;4959549;28;20043;-88
2023/10/10 08:35:25;;;;;;;;;;;;;;;;;;4960022;28;20420;-88
2023/10/10 08:37:56;;;;;;;0.30;0.30;;;;;;;;;;4944335;28;20424;-87
2023/10/10 08:40:22;;;;;;;0.20;0.20;;;;;;;;;;4943137;28;20038;-86
2023/10/10 08:42:49;;;;;;;0.57;0.57;;;;;;;;;;4958885;28;20400;-88
2023/10/10 08:45:22;;;;;;;0.43;0.38;;;;;;;;;;4927049;28;20058;-87
2023/10/10 08:48:03;;;;;;;0.10;0.10;;;;;;;;;;4942128;28;20043;-86
2023/10/10 08:50:32;;;;;;;0.10;0.10;;;;;;;;;;4952141;28;20197;-87
2023/10/10 08:52:59;;;;;;;0.10;0.10;;;;;;;;;;4928721;28;20363;-87
2023/10/10 08:55:28;;;;;;;0.20;0.20;;;;;;;;;;4937966;29;20062;-86
2023/10/10 08:57:57;;;;;;;0.43;0.43;;;;;;;;;;4918238;29;20185;-87
2023/10/10 09:00:27;;;;;;;0.40;0.40;;;;;;;;;;4955075;29;20043;-89
2023/10/10 09:02:56;;;;;;;0.20;0.20;;;;;;;;;;4918714;28;20055;-87
2023/10/10 09:05:23;;;;;;;0.40;0.40;;;;;;;;;;4926789;28;20041;-86
2023/10/10 09:07:52;;;;;;;0.75;0.75;;;;;;;;;;4957440;28;20101;-86
2023/10/10 09:10:28;;;;;;;0.20;0.20;;;;;;;;;;4941680;28;20070;-89
2023/10/10 09:12:56;;;;;;;0.52;0.52;;;;;;;;;;4958011;28;20046;-85
2023/10/10 09:15:22;;;;;;;0.38;0.38;;;;;;;;;;4926530;28;20042;-85
2023/10/10 09:17:48;;;;;;;0.10;0.10;;;;;;;;;;4957931;28;20042;-85
2023/10/10 09:20:27;;;;;;;0.20;0.20;;;;;;;;;;4958080;28;20055;-85
2023/10/10 09:23:04;;;;;;;0.70;0.22;;;;;;;;;;4958206;28;20101;-84
2023/10/10 09:25:43;;;;;;;0.10;0.10;;;;;;;;;;4958060;28;20054;-84
2023/10/10 09:28:15;;;;;;;0.43;0.40;;;;;;;;;;4958409;28;20396;-84
2023/10/10 09:30:58;;;;;;;0.10;0.10;;;;;;;;;;4958877;28;20534;-84
2023/10/10 09:33:29;;;;;;;0.10;0.10;;;;;;;;;;4944833;28;20053;-85
2023/10/10 09:36:08;;;;;;;0.20;0.20;;;;;;;;;;4958314;28;20055;-84
2023/10/10 09:38:36;;;;;;;0.10;0.10;;;;;;;;;;4943490;28;20518;-87
2023/10/10 09:41:15;;;;;;;0.10;0.10;;;;;;;;;;4941383;28;20039;-85
2023/10/10 09:44:27;;;;;;;0.10;0.10;;;;;;;;;;4957829;28;20121;-85
2023/10/10 09:47:12;;;;;;;0.10;0.10;;;;;;;;;;4979839;28;20407;-87
2023/10/10 09:54:57;;;;;;;0.30;0.30;;;;;;;;;;4979918;28;20046;-86
2023/10/10 09:57:26;;;;;;;0.13;0.13;;;;;;;;;;4961035;28;20042;-86
2023/10/10 09:59:56;;;;;;;0.52;0.52;;;;;;;;;;4994345;28;20450;-86
2023/10/10 10:02:43;;;;;;;0.10;0.10;;;;;;;;;;4978920;28;20417;-86
2023/10/10 10:05:18;;;;;;;0.30;0.30;;;;;;;;;;4994120;28;20499;-86
2023/10/10 10:07:56;;;;;;;0.10;0.10;;;;;;;;;;4945860;28;20074;-86
2023/10/10 10:10:35;;;;;;;0.20;0.20;;;;;;;;;;4978771;28;20050;-86
2023/10/10 10:13:13;;;;;;;0.20;0.20;;;;;;;;;;4976658;28;20054;-86
2023/10/10 10:15:58;;;;;;;0.10;0.10;;;;;;;;;;4960705;28;20056;-85
2023/10/10 10:18:27;;;;;;;0.10;0.10;;;;;;;;;;4976525;28;20127;-86
2023/10/10 10:23:45;;;;;;;0.20;0.20;;;;;;;;;;4978403;28;20046;-86
2023/10/10 10:26:11;;;;;;;0.10;0.10;;;;;;;;;;4978058;28;20042;-85
2023/10/10 10:28:56;;;;;;;0.10;0.10;;;;;;;;;;4976749;28;20085;-85
2023/10/10 10:31:29;;;;;;;0.38;0.38;;;;;;;;;;4960359;28;20042;-85
2023/10/10 10:34:05;;;;;;;0.40;0.40;;;;;;;;;;4993777;28;20039;-86
2023/10/10 10:36:41;;;;;;;0.20;0.20;;;;;;;;;;4960967;28;20097;-86
2023/10/10 10:39:34;;;;;;;0.25;0.25;;;;;;;;;;4960362;28;20435;-85
2023/10/10 10:42:00;;;;;;;0.85;0.55;;;;;;;;;;4976300;28;20498;-86
2023/10/10 10:44:44;;;;;;;0.10;0.10;;;;;;;;;;4946569;28;20042;-86
2023/10/10 10:47:11;;;;;;;0.20;0.20;;;;;;;;;;4961177;28;20038;-86
2023/10/10 10:49:40;;;;;;;0.10;0.10;;;;;;;;;;4959941;28;20475;-85
2023/10/10 10:52:43;;;;;;;0.10;0.10;;;;;;;;;;4993273;28;20514;-86
2023/10/10 10:55:21;;;;;;;0.30;0.30;;;;;;;;;;4993497;28;20444;-85
2023/10/10 10:57:47;;;;;;;0.45;0.45;;;;;;;;;;4976131;28;20142;-85
2023/10/10 11:00:21;;;;;;;0.10;0.10;;;;;;;;;;4959944;28;20073;-86
2023/10/10 11:02:50;;;;;;;1.02;0.30;;;;;;;;;;4975197;28;20055;-86
2023/10/10 11:05:24;;;;;;;0.22;0.22;;;;;;;;;;4944266;28;20039;-86
2023/10/10 11:07:51;;;;;;;0.10;0.10;;;;;;;;;;4993272;28;20550;-85
2023/10/10 11:10:35;;;;;;;0.20;0.20;;;;;;;;;;4959803;28;20043;-86
2023/10/10 11:13:07;;;;;;;0.20;0.20;;;;;;;;;;4961178;28;20054;-86
2023/10/10 11:15:38;;;;;;;0.10;0.10;;;;;;;;;;4959052;28;20077;-86
2023/10/10 11:18:07;;;;;;;0.20;0.20;;;;;;;;;;4969639;28;20047;-85
2023/10/10 11:20:55;;;;;;;0.10;0.10;;;;;;;;;;4940615;28;20042;-86
2023/10/10 11:23:21;;;;;;;0.10;0.10;;;;;;;;;;4956171;28;20039;-85
2023/10/10 11:26:00;;;;;;;0.10;0.10;;;;;;;;;;4956370;28;20042;-85
2023/10/10 11:28:36;;;;;;;0.10;0.10;;;;;;;;;;4955968;28;20057;-85
2023/10/10 11:31:06;;;;;;;0.10;0.10;;;;;;;;;;4956277;28;20046;-85
2023/10/10 11:33:48;;;;;;;0.10;0.10;;;;;;;;;;4942972;28;20046;-85
2023/10/10 11:36:29;;;;;;;0.10;0.10;;;;;;;;;;4941535;28;20062;-87
2023/10/10 11:39:17;;;;;;;0.25;0.25;;;;;;;;;;4943418;28;20046;-86
2023/10/10 11:41:51;;;;;;;0.10;0.10;;;;;;;;;;4943837;28;20082;-86
2023/10/10 11:44:18;;;;;;;0.20;0.20;;;;;;;;;;4955560;28;20046;-85
2023/10/10 11:46:45;;;;;;;0.10;0.10;;;;;;;;;;4939975;28;20043;-85
2023/10/10 11:49:15;;;;;;;0.20;0.20;;;;;;;;;;4973448;28;20042;-85
2023/10/10 11:51:42;;;;;;;0.10;0.10;;;;;;;;;;4956399;28;20034;-86
2023/10/10 11:54:08;;;;;;;0.10;0.10;;;;;;;;;;4956677;28;20145;-87
2023/10/10 11:56:46;;;;;;;0.20;0.20;;;;;;;;;;4957436;28;20047;-85
2023/10/10 11:59:14;;;;;;;0.52;0.52;;;;;;;;;;4941128;28;20159;-86
2023/10/10 12:04:32;;;;;;;0.22;0.22;;;;;;;;;;4957338;28;20377;-85
2023/10/10 12:06:59;;;;;;;0.10;0.10;;;;;;;;;;4959820;28;20039;-86
2023/10/10 12:09:26;;;;;;;0.20;0.20;;;;;;;;;;4959827;28;20669;-85
2023/10/10 12:12:01;;;;;;;0.20;0.20;;;;;;;;;;4959947;28;20461;-86
2023/10/10 12:14:36;;;;;;;0.38;0.38;;;;;;;;;;4945087;28;20057;-85
2023/10/10 12:17:05;;;;;;;0.20;0.20;;;;;;;;;;4959694;28;20480;-86
2023/10/10 12:19:37;;;;;;;1.85;0.30;;;;;;;;;;4976969;28;20046;-86
2023/10/10 12:22:15;;;;;;;0.20;0.20;;;;;;;;;;4945221;28;20051;-86
2023/10/10 12:24:41;;;;;;;0.20;0.20;;;;;;;;;;4929510;28;20559;-86
2023/10/10 12:27:08;;;;;;;0.10;0.10;;;;;;;;;;4928174;28;20030;-87
2023/10/10 12:29:40;;;;;;;0.45;0.45;;;;;;;;;;4943769;28;20466;-85
2023/10/10 12:32:15;;;;;;;;;;;;;;;;;;4943594;28;20130;-85
2023/10/10 12:34:42;;;;;;;0.77;0.77;;;;;;;;;;4942935;28;19921;-85
2023/10/10 12:37:12;;;;;;;0.10;0.10;;;;;;;;;;4959803;28;20119;-85
2023/10/10 12:39:38;;;;;;;0.15;0.15;;;;;;;;;;4959176;28;20399;-85
2023/10/10 12:42:04;;;;;;;0.20;0.20;;;;;;;;;;4959107;28;20512;-86
2023/10/10 12:44:30;;;;;;;0.30;0.20;;;;;;;;;;4942765;28;20051;-86
2023/10/10 12:46:59;;;;;;;0.20;0.20;;;;;;;;;;4958881;28;20053;-87
2023/10/10 12:49:36;;;;;;;0.20;0.20;;;;;;;;;;4958768;28;20086;-85
2023/10/10 12:52:02;;;;;;;0.10;0.10;;;;;;;;;;4942989;28;20183;-85
2023/10/10 12:54:34;;;;;;;0.30;0.30;;;;;;;;;;4942896;28;20089;-86
2023/10/10 12:57:05;;;;;;;0.10;0.10;;;;;;;;;;4927900;28;20053;-86
2023/10/10 12:59:32;;;;;;;0.10;0.10;;;;;;;;;;4958823;28;20106;-88
2023/10/10 13:02:00;;;;;;;0.10;0.10;;;;;;;;;;4976134;28;20192;-86
2023/10/10 13:04:32;;;;;;;0.20;0.20;;;;;;;;;;4942983;28;20126;-85
2023/10/10 13:07:04;;;;;;;0.30;0.30;;;;;;;;;;4958801;28;20500;-84
2023/10/10 13:09:30;;;;;;;;;;;;;;;;;;4959109;28;20050;-85
2023/10/10 13:11:56;;;;;;;0.20;0.20;;;;;;;;;;4958455;28;19918;-85
2023/10/10 13:14:25;;;;;;;0.20;0.20;;;;;;;;;;4942542;28;20503;-85
2023/10/10 13:19:23;;;;;;;0.20;0.20;;;;;;;;;;4958432;28;20047;-84
2023/10/10 13:21:52;;;;;;;0.20;0.20;;;;;;;;;;4958428;28;20551;-85
2023/10/10 13:24:18;;;;;;;0.20;0.20;;;;;;;;;;4942287;28;20070;-86
2023/10/10 13:26:50;;;;;;;0.25;0.25;;;;;;;;;;4975744;28;20043;-86
2023/10/10 13:29:16;;;;;;;0.20;0.20;;;;;;;;;;4943200;28;20448;-86
2023/10/10 13:31:44;;;;;;;0.20;0.20;;;;;;;;;;4942246;28;20057;-86
2023/10/10 13:34:16;;;;;;;0.20;0.20;;;;;;;;;;4942403;28;20562;-86
2023/10/10 13:36:42;;;;;;;0.20;0.20;;;;;;;;;;4926463;28;20345;-85
2023/10/10 13:39:14;;;;;;;0.20;0.20;;;;;;;;;;4957867;28;20488;-85
2023/10/10 13:41:41;;;;;;;0.20;0.20;;;;;;;;;;4975397;28;20050;-85
2023/10/10 13:44:07;;;;;;;0.15;0.15;;;;;;;;;;4957621;28;20051;-86
2023/10/10 13:46:35;;;;;;;0.10;0.10;;;;;;;;;;4957498;28;20058;-86
2023/10/10 13:49:08;;;;;;;0.10;0.10;;;;;;;;;;4926220;28;20126;-86
2023/10/10 13:51:40;;;;;;;0.10;0.10;;;;;;;;;;4975169;28;20452;-86
2023/10/10 13:54:06;;;;;;;0.20;0.20;;;;;;;;;;4957983;28;20392;-86
2023/10/10 13:56:32;;;;;;;0.20;0.20;;;;;;;;;;4941696;28;20382;-86
2023/10/10 13:59:01;;;;;;;0.10;0.10;;;;;;;;;;4941576;28;20046;-86
2023/10/10 14:04:00;;;;;;;0.10;0.10;;;;;;;;;;4941443;28;20081;-86
2023/10/10 14:06:27;;;;;;;0.10;0.10;;;;;;;;;;4957501;28;20439;-86
2023/10/10 14:08:57;;;;;;;0.15;0.15;;;;;;;;;;4957421;28;20121;-86
2023/10/10 14:11:24;;;;;;;0.10;0.10;;;;;;;;;;4941319;28;20046;-86
2023/10/10 14:13:51;;;;;;;0.10;0.10;;;;;;;;;;4941404;28;20038;-86
2023/10/10 14:16:17;;;;;;;0.10;0.10;;;;;;;;;;4941456;28;20042;-86
2023/10/10 14:18:47;;;;;;;0.10;0.10;;;;;;;;;;4941652;28;20046;-86
2023/10/10 14:21:13;;;;;;;0.20;0.20;;;;;;;;;;4941120;28;20085;-87
2023/10/10 14:23:41;;;;;;;0.30;0.30;;;;;;;;;;4956975;28;20058;-87
2023/10/10 14:26:13;;;;;;;0.10;0.10;;;;;;;;;;4941288;28;20050;-87
2023/10/10 14:28:48;;;;;;;0.10;0.10;;;;;;;;;;4941826;28;20050;-91
2023/10/10 14:31:17;;;;;;;0.20;0.20;;;;;;;;;;4926767;28;20085;-90
2023/10/10 14:33:43;;;;;;;0.10;0.10;;;;;;;;;;4925804;28;20061;-86
2023/10/10 14:36:13;;;;;;;0.10;0.10;;;;;;;;;;4941021;28;20085;-86
2023/10/10 14:38:44;;;;;;;0.20;0.20;;;;;;;;;;4941749;28;20475;-88
2023/10/10 14:41:11;;;;;;;0.50;0.50;;;;;;;;;;4942397;28;20082;-87
2023/10/10 14:43:37;;;;;;;0.10;0.10;;;;;;;;;;4924973;28;20097;-86
2023/10/10 14:46:04;;;;;;;0.17;0.17;;;;;;;;;;4940869;28;20054;-86
2023/10/10 14:48:33;;;;;;;0.10;0.10;;;;;;;;;;4941338;28;20051;-86
2023/10/10 14:51:05;;;;;;;0.10;0.10;;;;;;;;;;4957053;28;20696;-87
2023/10/10 14:53:34;;;;;;;0.25;0.20;;;;;;;;;;4941496;28;20404;-86
2023/10/10 14:56:05;;;;;;;0.10;0.10;;;;;;;;;;4940723;28;20408;-87
2023/10/10 14:58:31;;;;;;;0.10;0.10;;;;;;;;;;4956591;28;20249;-86
2023/10/10 15:00:57;;;;;;;0.10;0.10;;;;;;;;;;4956501;28;20039;-86
2023/10/10 15:03:25;;;;;;;0.10;0.10;;;;;;;;;;4940393;28;20058;-88
2023/10/10 15:05:51;;;;;;;0.20;0.20;;;;;;;;;;4940570;28;20050;-88
2023/10/10 15:08:21;;;;;;;0.20;0.20;;;;;;;;;;4940380;28;20065;-87
2023/10/10 15:10:51;;;;;;;0.10;0.10;;;;;;;;;;4924688;28;20069;-87
2023/10/10 15:13:18;;;;;;;0.40;0.40;;;;;;;;;;4925051;28;20043;-87
2023/10/10 15:15:48;;;;;;;0.10;0.10;;;;;;;;;;4940438;28;20167;-87
2023/10/10 15:18:17;;;;;;;0.10;0.10;;;;;;;;;;4940767;28;20492;-86
2023/10/10 15:20:48;;;;;;;0.20;0.20;;;;;;;;;;4956307;28;20098;-86
2023/10/10 15:23:18;;;;;;;0.20;0.20;;;;;;;;;;4940826;28;20058;-86
2023/10/10 15:25:45;;;;;;;0.20;0.20;;;;;;;;;;4924736;28;20042;-87
2023/10/10 15:28:11;;;;;;;1.75;0.75;;;;;;;;;;4956413;28;20042;-87
2023/10/10 15:30:41;;;;;;;0.10;0.10;;;;;;;;;;4956339;28;20062;-87
2023/10/10 15:33:07;;;;;;;0.13;0.13;;;;;;;;;;4940082;28;20098;-87
2023/10/10 15:35:38;;;;;;;0.10;0.10;;;;;;;;;;4940171;28;20057;-86
2023/10/10 15:38:09;;;;;;;0.17;0.17;;;;;;;;;;4940224;28;20049;-87
2023/10/10 15:40:39;;;;;;;0.20;0.20;;;;;;;;;;4940157;28;20086;-87
2023/10/10 15:43:11;;;;;;;0.17;0.17;;;;;;;;;;4940454;28;20039;-88
2023/10/10 15:45:38;;;;;;;0.10;0.10;;;;;;;;;;4940564;28;20054;-88
2023/10/10 15:48:04;;;;;;;0.10;0.10;;;;;;;;;;4927205;28;20567;-88
2023/10/10 15:50:34;;;;;;;0.30;0.30;;;;;;;;;;4939933;28;20515;-87
2023/10/10 15:53:00;;;;;;;0.20;0.20;;;;;;;;;;4940425;28;20050;-87
2023/10/10 15:55:26;;;;;;;0.20;0.20;;;;;;;;;;4939658;28;20047;-86
2023/10/10 15:57:52;;;;;;;0.10;0.10;;;;;;;;;;4939692;28;20440;-86
2023/10/10 16:00:21;;;;;;;0.15;0.15;;;;;;;;;;4939882;28;20496;-85
2023/10/10 16:02:53;;;;;;;0.10;0.10;;;;;;;;;;4955914;28;20074;-86
2023/10/10 16:05:20;;;;;;;0.10;0.10;;;;;;;;;;4939734;28;20039;-85
2023/10/10 16:07:46;;;;;;;0.10;0.10;;;;;;;;;;4955744;28;20041;-85
2023/10/10 16:10:15;;;;;;;0.20;0.20;;;;;;;;;;4955746;28;20070;-86
2023/10/10 16:12:42;;;;;;;0.20;0.20;;;;;;;;;;4939791;28;20038;-85
2023/10/10 16:15:10;;;;;;;0.10;0.10;;;;;;;;;;4955604;28;20051;-86
2023/10/10 16:17:36;;;;;;;0.10;0.10;;;;;;;;;;4955559;28;20496;-86
2023/10/10 16:20:06;;;;;;;0.10;0.10;;;;;;;;;;4955643;28;20455;-87
2023/10/10 16:22:35;;;;;;;0.10;0.10;;;;;;;;;;4955485;28;20053;-86
2023/10/10 16:25:03;;;;;;;0.10;0.10;;;;;;;;;;4939757;28;20086;-87
2023/10/10 16:27:31;;;;;;;0.10;0.10;;;;;;;;;;4939804;28;20046;-88
2023/10/10 16:29:58;;;;;;;0.10;0.10;;;;;;;;;;4939719;28;20039;-88
2023/10/10 16:32:24;;;;;;;0.10;0.10;;;;;;;;;;4955595;28;20488;-89
2023/10/10 16:34:52;;;;;;;0.20;0.20;;;;;;;;;;4940013;28;20047;-88
2023/10/10 16:37:20;;;;;;;0.10;0.10;;;;;;;;;;4939946;28;20074;-87
2023/10/10 16:39:46;;;;;;;0.20;0.20;;;;;;;;;;4924165;28;20047;-88
2023/10/10 16:42:13;;;;;;;0.20;0.20;;;;;;;;;;4923618;28;20047;-88
2023/10/10 16:44:40;;;;;;;0.20;0.20;;;;;;;;;;4939595;28;20509;-88
2023/10/10 16:47:06;;;;;;;0.10;0.10;;;;;;;;;;4923798;28;20481;-88
2023/10/10 16:49:36;;;;;;;0.10;0.10;;;;;;;;;;4939787;28;20484;-88
2023/10/10 16:52:05;;;;;;;0.22;0.22;;;;;;;;;;4943914;28;20066;-88
2023/10/10 16:54:33;;;;;;;0.35;0.35;;;;;;;;;;4928117;28;20051;-89
2023/10/10 16:56:59;;;;;;;0.40;0.40;;;;;;;;;;4943947;28;20050;-88
2023/10/10 16:59:25;;;;;;;0.10;0.10;;;;;;;;;;4958782;28;20042;-87
2023/10/10 17:01:51;;;;;;;0.10;0.10;;;;;;;;;;4958919;28;20042;-87
2023/10/10 17:04:18;;;;;;;0.10;0.10;;;;;;;;;;4942861;28;20074;-88
2023/10/10 17:06:48;;;;;;;0.32;0.22;;;;;;;;;;4958625;28;20049;-87
2023/10/10 17:09:14;;;;;;;0.10;0.10;;;;;;;;;;4943103;28;20393;-88
2023/10/10 17:11:42;;;;;;;0.20;0.20;;;;;;;;;;4927213;28;20133;-88
2023/10/10 17:14:08;;;;;;;0.10;0.10;;;;;;;;;;4958352;28;20121;-88
2023/10/10 17:16:34;;;;;;;0.13;0.13;;;;;;;;;;4958382;28;20167;-88
2023/10/10 17:19:00;;;;;;;0.40;0.40;;;;;;;;;;4926786;28;20046;-88
2023/10/10 17:21:27;;;;;;;0.10;0.10;;;;;;;;;;4942643;28;20043;-89
2023/10/10 17:23:56;;;;;;;0.10;0.10;;;;;;;;;;4942790;28;20495;-88
2023/10/10 17:26:23;;;;;;;0.20;0.20;;;;;;;;;;4959127;28;20493;-88
2023/10/10 17:28:49;;;;;;;0.22;0.22;;;;;;;;;;4942741;28;20499;-88
2023/10/10 17:31:19;;;;;;;0.10;0.10;;;;;;;;;;4942433;28;20042;-89